Throop, New York
Current Conditions -  °F | °C
As of 10:54 AM on Monday 24 Nov 2014 (Local Time) from KSYR Reporting Station
Broken Clouds Broken Clouds  
Wind Chill: 21°   Ceiling: 7000
Heat Index: 21°   Visibility: 10mi
Dew Point: 12°   Wind: 23mph
Humidity: 55%   Direction: 180°S
Pressure: 29.41"   Gusts: 35mph
Location:  42.9235°N, 76.5525°W
Report Text: KSYR 241554Z 18020G30KT 10SM SCT041 BKN070 21/12 A2941 RMK AO2 PK WND 20030/1549 SLP954 T02110117
Loading
Personal Weather Stations






























Interactive Weather Map New forecast layout! Learn more

10-Day Weather Forecast

Advertisements
Track Severe Weather on mobile